Hauptseite
METAR-TAF:

METAR-TAF

Flughäfen :

London City Airport

London, England

Breite: 51-30N, Länge: 000-03E, Höhe: 5 m

Beobachtung

Neuester Wetterbericht von vor 25 Minuten, um 21:20 UTC
Wind 10 kt aus West
Temperatur 24°C
Luftfeuchtigkeit 57%
Luftdruck 1013 hPa
Sichtweite 10 km oder mehr

METAR: EGLC 162120Z AUTO 28010KT 9999 NCD 24/15 Q1013

Zeit: 22:45 (21:45 UTC)

Prognose

Neuester Wetterbericht von vor 4 Stunden und 43 Minuten, um 17:02 UTC
Gültige Prognose vom 16 um 18 UTC bis 16 um 21 UTC
Wind 8 kt aus West
Sichtweite 10 km oder mehr
Leicht bewölkt in der Höhe von 4500 ft

TAF: EGLC 161702Z 1618/1621 26008KT 9999 FEW045

Wetterbeobachtungen und Prognosen von mehr als 4000 Flughäfen (METAR und TAF Bericht).

Die verfügbaren Stationen werden durch gelbe und rote Markierungen auf der Karte dargestellt.

Führen Sie die Maus auf sie, um den Namen der Station zu sehen.

Darauf klicken, um die Beobachtung von Wetterbeobachtungen und Prognosen zu sehen.

Um die Karte zu ändern : klicken Sie auf den grünen Tasten mit einem schwarzen Kreuz Zum Vergrößern, auf den grünen Button mit einem Gedankenstrich zu verkleinern, oder auf die grünen Pfeile für benachbarte Karten.


METAR-TAF: